sensor_id;sensor_type;location;lat;lon;timestamp;P1;durP1;ratioP1;P2;durP2;ratioP2
61038;SDS011;46919;45.816;3.104;2023-04-30T00:02:26;5.68;;;2.58;;
61038;SDS011;46919;45.816;3.104;2023-04-30T00:04:52;3.00;;;2.50;;
61038;SDS011;46919;45.816;3.104;2023-04-30T00:07:17;4.05;;;2.22;;
61038;SDS011;46919;45.816;3.104;2023-04-30T00:09:42;4.25;;;2.50;;
61038;SDS011;46919;45.816;3.104;2023-04-30T00:12:08;2.55;;;2.35;;
61038;SDS011;46919;45.816;3.104;2023-04-30T00:14:33;2.60;;;2.20;;
61038;SDS011;46919;45.816;3.104;2023-04-30T00:16:59;3.90;;;2.55;;
61038;SDS011;46919;45.816;3.104;2023-04-30T00:19:24;3.63;;;3.10;;
61038;SDS011;46919;45.816;3.104;2023-04-30T00:21:50;3.60;;;2.60;;
61038;SDS011;46919;45.816;3.104;2023-04-30T00:24:15;4.68;;;2.65;;
61038;SDS011;46919;45.816;3.104;2023-04-30T00:26:40;2.80;;;2.50;;
61038;SDS011;46919;45.816;3.104;2023-04-30T00:29:07;3.88;;;2.83;;
61038;SDS011;46919;45.816;3.104;2023-04-30T00:31:33;3.00;;;2.70;;
61038;SDS011;46919;45.816;3.104;2023-04-30T00:33:59;3.75;;;2.72;;
61038;SDS011;46919;45.816;3.104;2023-04-30T00:36:24;2.50;;;2.30;;
61038;SDS011;46919;45.816;3.104;2023-04-30T00:38:49;3.97;;;2.90;;
61038;SDS011;46919;45.816;3.104;2023-04-30T00:41:15;2.95;;;2.67;;
61038;SDS011;46919;45.816;3.104;2023-04-30T00:43:40;2.90;;;2.53;;
61038;SDS011;46919;45.816;3.104;2023-04-30T00:46:06;4.07;;;2.80;;
61038;SDS011;46919;45.816;3.104;2023-04-30T00:48:31;5.28;;;3.28;;
61038;SDS011;46919;45.816;3.104;2023-04-30T00:50:56;3.35;;;2.83;;
61038;SDS011;46919;45.816;3.104;2023-04-30T00:53:22;3.38;;;3.08;;
61038;SDS011;46919;45.816;3.104;2023-04-30T00:55:47;4.68;;;3.15;;
61038;SDS011;46919;45.816;3.104;2023-04-30T00:58:13;3.45;;;2.80;;
61038;SDS011;46919;45.816;3.104;2023-04-30T01:00:39;3.00;;;2.70;;
61038;SDS011;46919;45.816;3.104;2023-04-30T01:03:10;2.90;;;2.70;;
61038;SDS011;46919;45.816;3.104;2023-04-30T01:05:37;3.10;;;2.80;;
61038;SDS011;46919;45.816;3.104;2023-04-30T01:08:03;3.42;;;3.13;;
61038;SDS011;46919;45.816;3.104;2023-04-30T01:10:29;4.15;;;2.97;;
61038;SDS011;46919;45.816;3.104;2023-04-30T01:13:08;4.05;;;3.53;;
61038;SDS011;46919;45.816;3.104;2023-04-30T01:18:27;5.07;;;3.70;;
61038;SDS011;46919;45.816;3.104;2023-04-30T01:21:01;5.68;;;3.90;;
61038;SDS011;46919;45.816;3.104;2023-04-30T01:23:47;4.30;;;3.40;;
61038;SDS011;46919;45.816;3.104;2023-04-30T01:29:34;3.63;;;3.30;;
61038;SDS011;46919;45.816;3.104;2023-04-30T01:32:02;5.88;;;3.90;;
61038;SDS011;46919;45.816;3.104;2023-04-30T01:34:28;5.10;;;3.70;;
61038;SDS011;46919;45.816;3.104;2023-04-30T01:51:02;4.68;;;4.00;;
61038;SDS011;46919;45.816;3.104;2023-04-30T01:53:52;4.97;;;4.03;;
61038;SDS011;46919;45.816;3.104;2023-04-30T01:56:31;4.53;;;4.00;;
61038;SDS011;46919;45.816;3.104;2023-04-30T01:59:03;5.20;;;4.22;;
61038;SDS011;46919;45.816;3.104;2023-04-30T02:01:30;5.72;;;4.05;;
61038;SDS011;46919;45.816;3.104;2023-04-30T02:03:57;6.22;;;4.20;;
61038;SDS011;46919;45.816;3.104;2023-04-30T02:06:23;5.18;;;4.03;;
61038;SDS011;46919;45.816;3.104;2023-04-30T02:08:52;7.75;;;4.25;;
61038;SDS011;46919;45.816;3.104;2023-04-30T02:11:19;4.75;;;3.83;;
61038;SDS011;46919;45.816;3.104;2023-04-30T02:13:45;5.65;;;4.32;;
61038;SDS011;46919;45.816;3.104;2023-04-30T02:16:10;5.88;;;4.40;;
61038;SDS011;46919;45.816;3.104;2023-04-30T02:18:35;4.57;;;4.07;;
61038;SDS011;46919;45.816;3.104;2023-04-30T02:21:01;4.68;;;4.28;;
61038;SDS011;46919;45.816;3.104;2023-04-30T02:23:27;6.45;;;4.15;;
61038;SDS011;46919;45.816;3.104;2023-04-30T02:25:52;5.65;;;4.57;;
61038;SDS011;46919;45.816;3.104;2023-04-30T02:28:17;5.35;;;4.15;;
61038;SDS011;46919;45.816;3.104;2023-04-30T02:30:43;6.43;;;4.10;;
61038;SDS011;46919;45.816;3.104;2023-04-30T02:33:08;4.93;;;4.43;;
61038;SDS011;46919;45.816;3.104;2023-04-30T02:35:36;5.78;;;5.10;;
61038;SDS011;46919;45.816;3.104;2023-04-30T02:38:02;5.57;;;4.25;;
61038;SDS011;46919;45.816;3.104;2023-04-30T02:40:27;5.70;;;4.32;;
61038;SDS011;46919;45.816;3.104;2023-04-30T02:42:53;4.80;;;3.97;;
61038;SDS011;46919;45.816;3.104;2023-04-30T02:45:20;4.90;;;4.40;;
61038;SDS011;46919;45.816;3.104;2023-04-30T02:47:45;4.90;;;4.32;;
61038;SDS011;46919;45.816;3.104;2023-04-30T02:50:11;5.85;;;3.97;;
61038;SDS011;46919;45.816;3.104;2023-04-30T02:52:36;6.78;;;4.90;;
61038;SDS011;46919;45.816;3.104;2023-04-30T02:55:02;6.40;;;4.40;;
61038;SDS011;46919;45.816;3.104;2023-04-30T02:57:28;7.25;;;4.70;;
61038;SDS011;46919;45.816;3.104;2023-04-30T02:59:53;4.80;;;4.30;;
61038;SDS011;46919;45.816;3.104;2023-04-30T03:02:18;6.20;;;4.78;;
61038;SDS011;46919;45.816;3.104;2023-04-30T03:04:47;4.97;;;4.32;;
61038;SDS011;46919;45.816;3.104;2023-04-30T03:07:13;5.70;;;4.30;;
61038;SDS011;46919;45.816;3.104;2023-04-30T03:09:38;6.43;;;5.00;;
61038;SDS011;46919;45.816;3.104;2023-04-30T03:12:04;5.47;;;4.90;;
61038;SDS011;46919;45.816;3.104;2023-04-30T03:14:29;6.20;;;5.18;;
61038;SDS011;46919;45.816;3.104;2023-04-30T03:16:55;7.00;;;5.32;;
61038;SDS011;46919;45.816;3.104;2023-04-30T03:19:20;7.55;;;4.80;;
61038;SDS011;46919;45.816;3.104;2023-04-30T03:21:49;6.53;;;5.20;;
61038;SDS011;46919;45.816;3.104;2023-04-30T03:24:16;6.60;;;5.43;;
61038;SDS011;46919;45.816;3.104;2023-04-30T03:26:41;7.30;;;5.63;;
61038;SDS011;46919;45.816;3.104;2023-04-30T03:29:06;7.85;;;5.80;;
61038;SDS011;46919;45.816;3.104;2023-04-30T03:31:32;6.55;;;5.15;;
61038;SDS011;46919;45.816;3.104;2023-04-30T03:33:57;7.18;;;5.90;;
61038;SDS011;46919;45.816;3.104;2023-04-30T03:36:23;7.00;;;5.18;;
61038;SDS011;46919;45.816;3.104;2023-04-30T03:38:48;6.68;;;5.20;;
61038;SDS011;46919;45.816;3.104;2023-04-30T03:41:13;6.55;;;5.43;;
61038;SDS011;46919;45.816;3.104;2023-04-30T03:43:39;6.80;;;5.20;;
61038;SDS011;46919;45.816;3.104;2023-04-30T03:46:05;6.78;;;5.63;;
61038;SDS011;46919;45.816;3.104;2023-04-30T03:48:30;7.30;;;6.10;;
61038;SDS011;46919;45.816;3.104;2023-04-30T03:50:56;6.72;;;5.85;;
61038;SDS011;46919;45.816;3.104;2023-04-30T03:53:21;7.65;;;5.50;;
61038;SDS011;46919;45.816;3.104;2023-04-30T03:55:47;8.93;;;6.10;;
61038;SDS011;46919;45.816;3.104;2023-04-30T03:58:13;7.68;;;5.82;;
61038;SDS011;46919;45.816;3.104;2023-04-30T04:00:40;6.43;;;5.72;;
61038;SDS011;46919;45.816;3.104;2023-04-30T04:03:06;9.43;;;6.00;;
61038;SDS011;46919;45.816;3.104;2023-04-30T04:05:31;6.32;;;5.72;;
61038;SDS011;46919;45.816;3.104;2023-04-30T04:07:56;8.25;;;5.80;;
61038;SDS011;46919;45.816;3.104;2023-04-30T04:10:22;7.50;;;5.60;;
61038;SDS011;46919;45.816;3.104;2023-04-30T04:12:47;7.57;;;6.40;;
61038;SDS011;46919;45.816;3.104;2023-04-30T04:15:13;8.25;;;5.65;;
61038;SDS011;46919;45.816;3.104;2023-04-30T04:17:38;6.88;;;5.68;;
61038;SDS011;46919;45.816;3.104;2023-04-30T04:20:04;10.43;;;5.60;;
61038;SDS011;46919;45.816;3.104;2023-04-30T04:22:30;11.02;;;6.82;;
61038;SDS011;46919;45.816;3.104;2023-04-30T04:24:55;7.47;;;6.18;;
61038;SDS011;46919;45.816;3.104;2023-04-30T04:27:21;9.45;;;6.25;;
61038;SDS011;46919;45.816;3.104;2023-04-30T04:29:47;6.90;;;6.20;;
61038;SDS011;46919;45.816;3.104;2023-04-30T04:32:13;7.38;;;6.30;;
61038;SDS011;46919;45.816;3.104;2023-04-30T04:34:38;8.73;;;6.10;;
61038;SDS011;46919;45.816;3.104;2023-04-30T04:37:04;8.18;;;6.28;;
61038;SDS011;46919;45.816;3.104;2023-04-30T04:39:29;7.55;;;5.90;;
61038;SDS011;46919;45.816;3.104;2023-04-30T04:41:55;7.53;;;6.13;;
61038;SDS011;46919;45.816;3.104;2023-04-30T04:44:20;8.68;;;6.57;;
61038;SDS011;46919;45.816;3.104;2023-04-30T04:46:46;7.78;;;6.47;;
61038;SDS011;46919;45.816;3.104;2023-04-30T04:49:12;8.32;;;6.60;;
61038;SDS011;46919;45.816;3.104;2023-04-30T04:51:38;9.43;;;6.50;;
61038;SDS011;46919;45.816;3.104;2023-04-30T04:54:03;9.93;;;6.75;;
61038;SDS011;46919;45.816;3.104;2023-04-30T04:56:30;8.57;;;6.70;;
61038;SDS011;46919;45.816;3.104;2023-04-30T04:58:55;7.53;;;6.07;;
61038;SDS011;46919;45.816;3.104;2023-04-30T05:01:21;10.15;;;6.80;;
61038;SDS011;46919;45.816;3.104;2023-04-30T05:03:46;7.78;;;6.20;;
61038;SDS011;46919;45.816;3.104;2023-04-30T05:06:12;8.25;;;6.50;;
61038;SDS011;46919;45.816;3.104;2023-04-30T05:08:38;8.23;;;6.47;;
61038;SDS011;46919;45.816;3.104;2023-04-30T05:11:03;9.07;;;6.80;;
61038;SDS011;46919;45.816;3.104;2023-04-30T05:13:28;9.93;;;6.53;;
61038;SDS011;46919;45.816;3.104;2023-04-30T05:15:54;7.82;;;6.55;;
61038;SDS011;46919;45.816;3.104;2023-04-30T05:18:20;9.05;;;6.68;;
61038;SDS011;46919;45.816;3.104;2023-04-30T05:20:45;8.27;;;6.15;;
61038;SDS011;46919;45.816;3.104;2023-04-30T05:23:10;10.00;;;6.15;;
61038;SDS011;46919;45.816;3.104;2023-04-30T05:25:36;6.75;;;5.95;;
61038;SDS011;46919;45.816;3.104;2023-04-30T05:28:02;10.13;;;6.30;;
61038;SDS011;46919;45.816;3.104;2023-04-30T05:30:27;10.45;;;6.47;;
61038;SDS011;46919;45.816;3.104;2023-04-30T05:32:53;7.38;;;6.25;;
61038;SDS011;46919;45.816;3.104;2023-04-30T05:35:20;8.60;;;6.60;;
61038;SDS011;46919;45.816;3.104;2023-04-30T05:37:46;7.90;;;6.10;;
61038;SDS011;46919;45.816;3.104;2023-04-30T05:40:12;6.88;;;5.88;;
61038;SDS011;46919;45.816;3.104;2023-04-30T05:42:38;9.00;;;6.53;;
61038;SDS011;46919;45.816;3.104;2023-04-30T05:45:05;7.93;;;6.68;;
61038;SDS011;46919;45.816;3.104;2023-04-30T05:47:31;9.80;;;6.50;;
61038;SDS011;46919;45.816;3.104;2023-04-30T05:49:56;8.63;;;6.60;;
61038;SDS011;46919;45.816;3.104;2023-04-30T05:52:22;8.18;;;6.30;;
61038;SDS011;46919;45.816;3.104;2023-04-30T05:54:47;8.30;;;6.43;;
61038;SDS011;46919;45.816;3.104;2023-04-30T05:57:13;7.65;;;6.22;;
61038;SDS011;46919;45.816;3.104;2023-04-30T05:59:38;9.25;;;6.28;;
61038;SDS011;46919;45.816;3.104;2023-04-30T06:02:04;7.75;;;6.60;;
61038;SDS011;46919;45.816;3.104;2023-04-30T06:04:30;9.18;;;6.35;;
61038;SDS011;46919;45.816;3.104;2023-04-30T06:06:56;9.35;;;6.13;;
61038;SDS011;46919;45.816;3.104;2023-04-30T06:09:21;8.65;;;7.13;;
61038;SDS011;46919;45.816;3.104;2023-04-30T06:11:47;9.50;;;7.55;;
61038;SDS011;46919;45.816;3.104;2023-04-30T06:14:14;9.75;;;7.20;;
61038;SDS011;46919;45.816;3.104;2023-04-30T06:16:41;8.45;;;7.10;;
61038;SDS011;46919;45.816;3.104;2023-04-30T06:19:07;8.57;;;7.47;;
61038;SDS011;46919;45.816;3.104;2023-04-30T06:21:33;14.73;;;7.35;;
61038;SDS011;46919;45.816;3.104;2023-04-30T06:23:58;10.13;;;6.93;;
61038;SDS011;46919;45.816;3.104;2023-04-30T06:26:26;10.38;;;7.68;;
61038;SDS011;46919;45.816;3.104;2023-04-30T06:28:52;9.30;;;7.03;;
61038;SDS011;46919;45.816;3.104;2023-04-30T06:31:17;9.98;;;7.55;;
61038;SDS011;46919;45.816;3.104;2023-04-30T06:33:42;8.48;;;7.00;;
61038;SDS011;46919;45.816;3.104;2023-04-30T06:36:08;10.57;;;7.75;;
61038;SDS011;46919;45.816;3.104;2023-04-30T06:38:33;11.80;;;8.00;;
61038;SDS011;46919;45.816;3.104;2023-04-30T06:40:59;9.60;;;7.47;;
61038;SDS011;46919;45.816;3.104;2023-04-30T06:43:24;10.40;;;8.00;;
61038;SDS011;46919;45.816;3.104;2023-04-30T06:45:50;11.52;;;8.18;;
61038;SDS011;46919;45.816;3.104;2023-04-30T06:48:15;8.88;;;6.63;;
61038;SDS011;46919;45.816;3.104;2023-04-30T06:50:40;10.68;;;7.13;;
61038;SDS011;46919;45.816;3.104;2023-04-30T06:53:11;10.32;;;6.93;;
61038;SDS011;46919;45.816;3.104;2023-04-30T06:55:40;8.65;;;6.78;;
61038;SDS011;46919;45.816;3.104;2023-04-30T06:58:06;8.95;;;6.38;;
61038;SDS011;46919;45.816;3.104;2023-04-30T07:00:32;9.48;;;6.40;;
61038;SDS011;46919;45.816;3.104;2023-04-30T07:02:58;9.93;;;6.47;;
61038;SDS011;46919;45.816;3.104;2023-04-30T07:05:28;7.28;;;6.05;;
61038;SDS011;46919;45.816;3.104;2023-04-30T07:07:55;7.97;;;6.50;;
61038;SDS011;46919;45.816;3.104;2023-04-30T07:10:21;7.63;;;6.50;;
61038;SDS011;46919;45.816;3.104;2023-04-30T07:12:46;6.68;;;5.68;;
61038;SDS011;46919;45.816;3.104;2023-04-30T07:15:12;7.22;;;5.82;;
61038;SDS011;46919;45.816;3.104;2023-04-30T07:17:37;7.32;;;5.57;;
61038;SDS011;46919;45.816;3.104;2023-04-30T07:20:03;6.10;;;5.43;;
61038;SDS011;46919;45.816;3.104;2023-04-30T07:22:32;8.98;;;6.63;;
61038;SDS011;46919;45.816;3.104;2023-04-30T07:24:58;7.10;;;5.72;;
61038;SDS011;46919;45.816;3.104;2023-04-30T07:27:24;6.38;;;5.78;;
61038;SDS011;46919;45.816;3.104;2023-04-30T07:29:50;7.22;;;5.78;;
61038;SDS011;46919;45.816;3.104;2023-04-30T07:32:16;6.15;;;5.55;;
61038;SDS011;46919;45.816;3.104;2023-04-30T07:34:41;7.03;;;5.88;;
61038;SDS011;46919;45.816;3.104;2023-04-30T07:37:07;6.68;;;5.50;;
61038;SDS011;46919;45.816;3.104;2023-04-30T07:39:33;8.13;;;5.85;;
61038;SDS011;46919;45.816;3.104;2023-04-30T07:42:00;7.00;;;6.13;;
61038;SDS011;46919;45.816;3.104;2023-04-30T07:44:26;7.57;;;6.05;;
61038;SDS011;46919;45.816;3.104;2023-04-30T07:46:52;7.85;;;6.43;;
61038;SDS011;46919;45.816;3.104;2023-04-30T07:49:17;7.70;;;5.82;;
61038;SDS011;46919;45.816;3.104;2023-04-30T07:51:43;8.52;;;5.75;;
61038;SDS011;46919;45.816;3.104;2023-04-30T07:54:08;6.95;;;5.93;;
61038;SDS011;46919;45.816;3.104;2023-04-30T07:56:34;8.38;;;5.88;;
61038;SDS011;46919;45.816;3.104;2023-04-30T07:59:00;11.55;;;7.18;;
61038;SDS011;46919;45.816;3.104;2023-04-30T08:01:25;7.35;;;6.35;;
61038;SDS011;46919;45.816;3.104;2023-04-30T08:03:50;8.57;;;7.15;;
61038;SDS011;46919;45.816;3.104;2023-04-30T08:06:16;9.38;;;7.35;;
61038;SDS011;46919;45.816;3.104;2023-04-30T08:08:41;9.35;;;7.28;;
61038;SDS011;46919;45.816;3.104;2023-04-30T08:11:06;10.82;;;6.68;;
61038;SDS011;46919;45.816;3.104;2023-04-30T08:13:32;8.48;;;7.25;;
61038;SDS011;46919;45.816;3.104;2023-04-30T08:15:57;10.23;;;8.48;;
61038;SDS011;46919;45.816;3.104;2023-04-30T08:18:23;9.05;;;7.53;;
61038;SDS011;46919;45.816;3.104;2023-04-30T08:20:48;9.82;;;7.78;;
61038;SDS011;46919;45.816;3.104;2023-04-30T08:23:14;8.90;;;7.57;;
61038;SDS011;46919;45.816;3.104;2023-04-30T08:25:40;9.32;;;7.90;;
61038;SDS011;46919;45.816;3.104;2023-04-30T08:28:06;11.13;;;8.63;;
61038;SDS011;46919;45.816;3.104;2023-04-30T08:30:31;9.75;;;7.72;;
61038;SDS011;46919;45.816;3.104;2023-04-30T08:32:57;11.10;;;8.60;;
61038;SDS011;46919;45.816;3.104;2023-04-30T08:35:22;12.95;;;8.20;;
61038;SDS011;46919;45.816;3.104;2023-04-30T08:37:47;13.00;;;8.65;;
61038;SDS011;46919;45.816;3.104;2023-04-30T08:40:13;10.60;;;8.27;;
61038;SDS011;46919;45.816;3.104;2023-04-30T08:42:40;10.30;;;7.93;;
61038;SDS011;46919;45.816;3.104;2023-04-30T08:45:11;10.35;;;7.93;;
61038;SDS011;46919;45.816;3.104;2023-04-30T08:47:38;11.82;;;8.00;;
61038;SDS011;46919;45.816;3.104;2023-04-30T08:50:05;10.63;;;7.88;;
61038;SDS011;46919;45.816;3.104;2023-04-30T08:52:31;11.65;;;8.60;;
61038;SDS011;46919;45.816;3.104;2023-04-30T08:55:01;11.40;;;8.68;;
61038;SDS011;46919;45.816;3.104;2023-04-30T08:57:31;8.45;;;7.47;;
61038;SDS011;46919;45.816;3.104;2023-04-30T08:59:57;9.70;;;8.25;;
61038;SDS011;46919;45.816;3.104;2023-04-30T09:02:22;11.05;;;7.70;;
61038;SDS011;46919;45.816;3.104;2023-04-30T09:04:48;11.27;;;7.68;;
61038;SDS011;46919;45.816;3.104;2023-04-30T09:07:13;8.98;;;7.70;;
61038;SDS011;46919;45.816;3.104;2023-04-30T09:09:39;8.52;;;7.63;;
61038;SDS011;46919;45.816;3.104;2023-04-30T09:12:15;10.43;;;8.07;;
61038;SDS011;46919;45.816;3.104;2023-04-30T09:15:00;7.65;;;6.88;;
61038;SDS011;46919;45.816;3.104;2023-04-30T09:17:28;9.38;;;7.68;;
61038;SDS011;46919;45.816;3.104;2023-04-30T09:19:54;9.15;;;8.15;;
61038;SDS011;46919;45.816;3.104;2023-04-30T09:22:30;10.50;;;7.35;;
61038;SDS011;46919;45.816;3.104;2023-04-30T09:24:56;9.32;;;7.40;;
61038;SDS011;46919;45.816;3.104;2023-04-30T09:27:21;8.27;;;7.32;;
61038;SDS011;46919;45.816;3.104;2023-04-30T09:29:47;9.05;;;7.35;;
61038;SDS011;46919;45.816;3.104;2023-04-30T09:32:13;10.00;;;7.78;;
61038;SDS011;46919;45.816;3.104;2023-04-30T09:34:38;8.35;;;6.68;;
61038;SDS011;46919;45.816;3.104;2023-04-30T09:37:04;10.30;;;7.45;;
61038;SDS011;46919;45.816;3.104;2023-04-30T09:39:31;11.32;;;7.97;;
61038;SDS011;46919;45.816;3.104;2023-04-30T09:42:06;8.85;;;7.25;;
61038;SDS011;46919;45.816;3.104;2023-04-30T09:44:38;7.55;;;6.38;;
61038;SDS011;46919;45.816;3.104;2023-04-30T09:47:09;6.95;;;6.22;;
61038;SDS011;46919;45.816;3.104;2023-04-30T09:49:36;8.05;;;6.90;;
61038;SDS011;46919;45.816;3.104;2023-04-30T09:52:02;10.70;;;7.20;;
61038;SDS011;46919;45.816;3.104;2023-04-30T09:54:29;8.68;;;6.90;;
61038;SDS011;46919;45.816;3.104;2023-04-30T09:56:56;8.45;;;6.88;;
61038;SDS011;46919;45.816;3.104;2023-04-30T09:59:33;8.55;;;5.70;;
61038;SDS011;46919;45.816;3.104;2023-04-30T10:02:05;7.85;;;6.43;;
61038;SDS011;46919;45.816;3.104;2023-04-30T10:04:36;8.73;;;6.20;;
61038;SDS011;46919;45.816;3.104;2023-04-30T10:07:05;7.72;;;6.32;;
61038;SDS011;46919;45.816;3.104;2023-04-30T10:10:19;6.93;;;6.05;;
61038;SDS011;46919;45.816;3.104;2023-04-30T10:12:25;7.10;;;6.40;;
61038;SDS011;46919;45.816;3.104;2023-04-30T10:15:06;6.38;;;5.65;;
61038;SDS011;46919;45.816;3.104;2023-04-30T10:17:59;6.97;;;6.00;;
61038;SDS011;46919;45.816;3.104;2023-04-30T10:20:28;8.32;;;6.47;;
61038;SDS011;46919;45.816;3.104;2023-04-30T10:22:59;6.75;;;5.85;;
61038;SDS011;46919;45.816;3.104;2023-04-30T10:25:25;6.72;;;5.38;;
61038;SDS011;46919;45.816;3.104;2023-04-30T10:27:51;7.18;;;6.00;;
61038;SDS011;46919;45.816;3.104;2023-04-30T10:30:17;7.20;;;6.45;;
61038;SDS011;46919;45.816;3.104;2023-04-30T10:32:46;6.55;;;5.65;;
61038;SDS011;46919;45.816;3.104;2023-04-30T10:35:18;6.85;;;5.68;;
61038;SDS011;46919;45.816;3.104;2023-04-30T10:38:12;7.25;;;6.53;;
61038;SDS011;46919;45.816;3.104;2023-04-30T10:40:37;7.72;;;5.22;;
61038;SDS011;46919;45.816;3.104;2023-04-30T10:43:02;5.47;;;4.88;;
61038;SDS011;46919;45.816;3.104;2023-04-30T10:45:37;5.75;;;5.15;;
61038;SDS011;46919;45.816;3.104;2023-04-30T10:48:07;4.80;;;3.50;;
61038;SDS011;46919;45.816;3.104;2023-04-30T10:50:38;5.15;;;3.60;;
61038;SDS011;46919;45.816;3.104;2023-04-30T10:53:05;5.30;;;3.90;;
61038;SDS011;46919;45.816;3.104;2023-04-30T10:55:31;8.55;;;7.45;;
61038;SDS011;46919;45.816;3.104;2023-04-30T10:57:57;4.22;;;3.83;;
61038;SDS011;46919;45.816;3.104;2023-04-30T11:00:28;5.90;;;3.60;;
61038;SDS011;46919;45.816;3.104;2023-04-30T11:02:55;4.70;;;3.83;;
61038;SDS011;46919;45.816;3.104;2023-04-30T11:05:32;4.28;;;3.60;;
61038;SDS011;46919;45.816;3.104;2023-04-30T11:07:59;5.20;;;3.45;;
61038;SDS011;46919;45.816;3.104;2023-04-30T11:10:25;4.85;;;3.70;;
61038;SDS011;46919;45.816;3.104;2023-04-30T11:12:53;5.20;;;3.72;;
61038;SDS011;46919;45.816;3.104;2023-04-30T11:15:20;4.00;;;3.60;;
61038;SDS011;46919;45.816;3.104;2023-04-30T11:17:49;5.60;;;4.22;;
61038;SDS011;46919;45.816;3.104;2023-04-30T11:20:19;4.97;;;3.75;;
61038;SDS011;46919;45.816;3.104;2023-04-30T11:22:46;4.47;;;3.47;;
61038;SDS011;46919;45.816;3.104;2023-04-30T11:25:12;5.00;;;4.20;;
61038;SDS011;46919;45.816;3.104;2023-04-30T11:27:43;5.63;;;4.35;;
61038;SDS011;46919;45.816;3.104;2023-04-30T11:32:39;5.28;;;4.57;;
61038;SDS011;46919;45.816;3.104;2023-04-30T11:35:06;6.45;;;4.82;;
61038;SDS011;46919;45.816;3.104;2023-04-30T11:37:38;5.38;;;4.88;;
61038;SDS011;46919;45.816;3.104;2023-04-30T11:40:09;6.40;;;5.50;;
61038;SDS011;46919;45.816;3.104;2023-04-30T11:42:42;5.93;;;4.95;;
61038;SDS011;46919;45.816;3.104;2023-04-30T11:45:09;6.30;;;5.30;;
61038;SDS011;46919;45.816;3.104;2023-04-30T11:47:45;8.05;;;6.38;;
61038;SDS011;46919;45.816;3.104;2023-04-30T11:50:15;6.45;;;5.65;;
61038;SDS011;46919;45.816;3.104;2023-04-30T11:52:47;5.85;;;4.95;;
61038;SDS011;46919;45.816;3.104;2023-04-30T11:55:19;4.72;;;4.20;;
61038;SDS011;46919;45.816;3.104;2023-04-30T11:57:46;5.32;;;4.82;;
61038;SDS011;46919;45.816;3.104;2023-04-30T12:02:43;5.30;;;4.80;;
61038;SDS011;46919;45.816;3.104;2023-04-30T12:05:11;6.07;;;5.05;;
61038;SDS011;46919;45.816;3.104;2023-04-30T12:07:40;6.93;;;5.25;;
61038;SDS011;46919;45.816;3.104;2023-04-30T12:10:10;5.35;;;4.57;;
61038;SDS011;46919;45.816;3.104;2023-04-30T12:12:35;5.07;;;4.57;;
61038;SDS011;46919;45.816;3.104;2023-04-30T12:15:09;5.30;;;4.80;;
61038;SDS011;46919;45.816;3.104;2023-04-30T12:17:39;5.82;;;5.25;;
61038;SDS011;46919;45.816;3.104;2023-04-30T12:20:05;5.78;;;4.65;;
61038;SDS011;46919;45.816;3.104;2023-04-30T12:22:32;5.47;;;4.97;;
61038;SDS011;46919;45.816;3.104;2023-04-30T12:24:58;5.88;;;5.05;;
61038;SDS011;46919;45.816;3.104;2023-04-30T12:27:24;5.07;;;4.50;;
61038;SDS011;46919;45.816;3.104;2023-04-30T12:29:49;15.23;;;10.52;;
61038;SDS011;46919;45.816;3.104;2023-04-30T12:32:18;18.42;;;11.93;;
61038;SDS011;46919;45.816;3.104;2023-04-30T12:34:45;5.63;;;4.80;;
61038;SDS011;46919;45.816;3.104;2023-04-30T12:37:15;6.88;;;6.18;;
61038;SDS011;46919;45.816;3.104;2023-04-30T12:39:41;7.88;;;5.75;;
61038;SDS011;46919;45.816;3.104;2023-04-30T12:42:07;6.30;;;4.40;;
61038;SDS011;46919;45.816;3.104;2023-04-30T12:44:40;5.15;;;3.35;;
61038;SDS011;46919;45.816;3.104;2023-04-30T12:47:07;4.28;;;3.05;;
61038;SDS011;46919;45.816;3.104;2023-04-30T12:49:34;3.92;;;3.53;;
61038;SDS011;46919;45.816;3.104;2023-04-30T12:52:21;5.75;;;3.10;;
61038;SDS011;46919;45.816;3.104;2023-04-30T12:54:48;4.85;;;3.25;;
61038;SDS011;46919;45.816;3.104;2023-04-30T12:57:13;3.70;;;3.10;;
61038;SDS011;46919;45.816;3.104;2023-04-30T13:02:24;6.20;;;3.58;;
61038;SDS011;46919;45.816;3.104;2023-04-30T13:04:51;3.35;;;3.05;;
61038;SDS011;46919;45.816;3.104;2023-04-30T13:07:17;3.47;;;3.08;;
61038;SDS011;46919;45.816;3.104;2023-04-30T13:09:43;4.13;;;3.08;;
61038;SDS011;46919;45.816;3.104;2023-04-30T13:12:08;3.47;;;2.90;;
61038;SDS011;46919;45.816;3.104;2023-04-30T13:14:34;3.10;;;2.80;;
61038;SDS011;46919;45.816;3.104;2023-04-30T13:17:00;3.65;;;2.88;;
61038;SDS011;46919;45.816;3.104;2023-04-30T13:19:29;4.30;;;2.65;;
61038;SDS011;46919;45.816;3.104;2023-04-30T13:21:54;5.70;;;3.22;;
61038;SDS011;46919;45.816;3.104;2023-04-30T13:24:20;3.58;;;2.70;;
61038;SDS011;46919;45.816;3.104;2023-04-30T13:26:45;3.55;;;2.65;;
61038;SDS011;46919;45.816;3.104;2023-04-30T13:29:12;2.95;;;2.53;;
61038;SDS011;46919;45.816;3.104;2023-04-30T13:31:37;2.67;;;2.38;;
61038;SDS011;46919;45.816;3.104;2023-04-30T13:34:03;3.72;;;2.50;;
61038;SDS011;46919;45.816;3.104;2023-04-30T13:36:28;5.30;;;2.67;;
61038;SDS011;46919;45.816;3.104;2023-04-30T13:38:53;2.92;;;2.53;;
61038;SDS011;46919;45.816;3.104;2023-04-30T13:41:19;3.00;;;2.53;;
61038;SDS011;46919;45.816;3.104;2023-04-30T13:43:46;2.70;;;2.20;;
61038;SDS011;46919;45.816;3.104;2023-04-30T13:46:12;2.60;;;2.40;;
61038;SDS011;46919;45.816;3.104;2023-04-30T13:48:39;3.00;;;2.47;;
61038;SDS011;46919;45.816;3.104;2023-04-30T13:51:04;3.13;;;2.08;;
61038;SDS011;46919;45.816;3.104;2023-04-30T13:53:30;3.80;;;2.50;;
61038;SDS011;46919;45.816;3.104;2023-04-30T13:55:55;4.40;;;2.38;;
61038;SDS011;46919;45.816;3.104;2023-04-30T13:58:23;2.92;;;2.28;;
61038;SDS011;46919;45.816;3.104;2023-04-30T14:00:49;2.70;;;2.10;;
61038;SDS011;46919;45.816;3.104;2023-04-30T14:03:14;4.15;;;2.10;;
61038;SDS011;46919;45.816;3.104;2023-04-30T14:05:40;2.35;;;1.80;;
61038;SDS011;46919;45.816;3.104;2023-04-30T14:08:05;2.10;;;1.90;;
61038;SDS011;46919;45.816;3.104;2023-04-30T14:10:31;2.78;;;2.10;;
61038;SDS011;46919;45.816;3.104;2023-04-30T14:12:56;3.40;;;1.90;;
61038;SDS011;46919;45.816;3.104;2023-04-30T14:15:22;2.08;;;1.88;;
61038;SDS011;46919;45.816;3.104;2023-04-30T14:17:48;4.88;;;2.30;;
61038;SDS011;46919;45.816;3.104;2023-04-30T14:20:14;3.85;;;2.47;;
61038;SDS011;46919;45.816;3.104;2023-04-30T14:22:40;3.42;;;2.30;;
61038;SDS011;46919;45.816;3.104;2023-04-30T14:25:05;2.22;;;1.70;;
61038;SDS011;46919;45.816;3.104;2023-04-30T14:27:32;2.22;;;2.03;;
61038;SDS011;46919;45.816;3.104;2023-04-30T14:29:57;2.38;;;2.10;;
61038;SDS011;46919;45.816;3.104;2023-04-30T14:32:26;4.28;;;2.00;;
61038;SDS011;46919;45.816;3.104;2023-04-30T14:34:51;3.63;;;1.85;;
61038;SDS011;46919;45.816;3.104;2023-04-30T14:37:17;3.47;;;1.90;;
61038;SDS011;46919;45.816;3.104;2023-04-30T14:39:43;2.38;;;2.17;;
61038;SDS011;46919;45.816;3.104;2023-04-30T14:42:08;2.38;;;2.08;;
61038;SDS011;46919;45.816;3.104;2023-04-30T14:44:35;2.63;;;1.90;;
61038;SDS011;46919;45.816;3.104;2023-04-30T14:47:01;2.25;;;1.85;;
61038;SDS011;46919;45.816;3.104;2023-04-30T14:49:27;2.25;;;2.05;;
61038;SDS011;46919;45.816;3.104;2023-04-30T14:51:52;2.35;;;2.13;;
61038;SDS011;46919;45.816;3.104;2023-04-30T14:54:18;2.00;;;1.80;;
61038;SDS011;46919;45.816;3.104;2023-04-30T14:56:43;2.45;;;2.00;;
61038;SDS011;46919;45.816;3.104;2023-04-30T14:59:09;3.47;;;1.77;;
61038;SDS011;46919;45.816;3.104;2023-04-30T15:01:36;3.35;;;1.65;;
61038;SDS011;46919;45.816;3.104;2023-04-30T15:04:01;1.75;;;1.60;;
61038;SDS011;46919;45.816;3.104;2023-04-30T15:06:27;3.28;;;2.42;;
61038;SDS011;46919;45.816;3.104;2023-04-30T15:08:53;2.47;;;2.10;;
61038;SDS011;46919;45.816;3.104;2023-04-30T15:11:18;2.17;;;1.80;;
61038;SDS011;46919;45.816;3.104;2023-04-30T15:13:44;2.45;;;2.22;;